Time;durP1;ratioP1;P1;durP2;ratioP2;P2;SDS_P1;SDS_P2;PMS_P1;PMS_P2;Temp;Humidity;BMP_temperature;BMP_pressure;BME280_temperature;BME280_humidity;BME280_pressure;Samples;Min_cycle;Max_cycle;Signal;HPM_P1;HPM_P2
2023/12/28 00:00:08;;;;;;;0.77;0.70;;;7.80;99.90;;;;;;5039427;28;20192;-80
2023/12/28 00:02:36;;;;;;;0.75;0.75;;;7.80;99.90;;;;;;5038387;28;20262;-79
2023/12/28 00:05:03;;;;;;;0.60;0.60;;;7.90;99.90;;;;;;5038085;28;20200;-80
2023/12/28 00:07:29;;;;;;;1.25;1.15;;;7.90;99.90;;;;;;5038299;28;20198;-79
2023/12/28 00:09:56;;;;;;;0.77;0.77;;;8.00;99.90;;;;;;5038231;28;20215;-80
2023/12/28 00:12:23;;;;;;;1.40;1.20;;;8.00;99.90;;;;;;5038327;28;20223;-80
2023/12/28 00:14:50;;;;;;;0.80;0.80;;;8.10;99.90;;;;;;5037627;28;20200;-80
2023/12/28 00:17:16;;;;;;;0.70;0.65;;;8.10;99.90;;;;;;5036956;28;20199;-79
2023/12/28 00:19:45;;;;;;;0.52;0.50;;;8.10;99.90;;;;;;5038125;28;20204;-80
2023/12/28 00:22:11;;;;;;;0.80;0.60;;;8.20;99.90;;;;;;5038156;28;20222;-78
2023/12/28 00:24:38;;;;;;;0.50;0.50;;;8.20;99.90;;;;;;5037661;28;20576;-78
2023/12/28 00:27:05;;;;;;;0.65;0.60;;;8.30;99.90;;;;;;5036593;28;20204;-81
2023/12/28 00:29:33;;;;;;;0.40;0.40;;;8.30;99.90;;;;;;5037862;28;20199;-80
2023/12/28 00:32:00;;;;;;;0.40;0.40;;;8.30;99.90;;;;;;5036659;28;20224;-80
2023/12/28 00:34:27;;;;;;;1.02;1.02;;;8.40;99.90;;;;;;5037492;28;20738;-79
2023/12/28 00:36:55;;;;;;;1.17;0.93;;;8.40;99.90;;;;;;5036340;28;20196;-80
2023/12/28 00:39:21;;;;;;;0.50;0.40;;;8.50;99.90;;;;;;5036677;28;20207;-80
2023/12/28 00:41:48;;;;;;;0.50;0.40;;;8.50;99.90;;;;;;5036335;28;20243;-80
2023/12/28 00:44:15;;;;;;;2.58;1.65;;;8.50;99.90;;;;;;5037351;28;20196;-80
2023/12/28 00:46:42;;;;;;;1.00;0.95;;;8.50;99.90;;;;;;5035794;28;20195;-79
2023/12/28 00:49:09;;;;;;;2.38;0.60;;;8.60;99.90;;;;;;5036403;28;20202;-80
2023/12/28 00:51:36;;;;;;;0.88;0.85;;;8.70;99.90;;;;;;5035982;28;20215;-80
2023/12/28 00:54:04;;;;;;;0.50;0.47;;;8.70;99.90;;;;;;5035659;28;20200;-80
2023/12/28 00:56:31;;;;;;;1.27;1.25;;;8.70;99.90;;;;;;5036318;28;20219;-79
2023/12/28 00:58:58;;;;;;;2.47;0.93;;;8.70;99.90;;;;;;5035921;28;20206;-79
2023/12/28 01:01:24;;;;;;;0.70;0.65;;;8.70;99.90;;;;;;5036436;28;20669;-79
2023/12/28 01:03:51;;;;;;;0.70;0.52;;;8.80;99.90;;;;;;5035529;28;20199;-79
2023/12/28 01:06:18;;;;;;;0.50;0.40;;;8.90;99.90;;;;;;5035510;28;20306;-80
2023/12/28 01:08:45;;;;;;;1.05;0.95;;;8.90;99.90;;;;;;5035741;28;20663;-79
2023/12/28 01:11:13;;;;;;;0.93;0.55;;;8.90;99.90;;;;;;5035251;28;20223;-79
2023/12/28 01:13:40;;;;;;;0.52;0.50;;;9.00;99.90;;;;;;5035145;28;20311;-78
2023/12/28 01:16:07;;;;;;;0.60;0.60;;;9.00;99.90;;;;;;5034756;28;20226;-79
2023/12/28 01:18:34;;;;;;;0.80;0.60;;;9.00;99.90;;;;;;5035644;28;20202;-79
2023/12/28 01:21:00;;;;;;;1.08;0.98;;;9.10;99.90;;;;;;5035187;28;20200;-79
2023/12/28 01:23:27;;;;;;;0.70;0.40;;;9.10;99.90;;;;;;5034864;28;20219;-78
2023/12/28 01:25:56;;;;;;;0.50;0.40;;;9.10;99.90;;;;;;5034707;28;20442;-78
2023/12/28 01:28:24;;;;;;;1.23;0.90;;;9.20;99.90;;;;;;5027148;28;20435;-80
2023/12/28 01:30:51;;;;;;;0.50;0.40;;;9.20;99.90;;;;;;5035431;28;20225;-80
2023/12/28 01:33:18;;;;;;;1.70;1.60;;;9.20;99.90;;;;;;5034474;28;20568;-80
2023/12/28 01:35:44;;;;;;;0.50;0.50;;;9.20;99.90;;;;;;5035283;28;20443;-79
2023/12/28 01:38:11;;;;;;;1.23;1.23;;;9.30;99.90;;;;;;5034146;28;20204;-80
2023/12/28 01:40:37;;;;;;;0.67;0.63;;;9.30;99.90;;;;;;5034105;28;20199;-79
2023/12/28 01:43:04;;;;;;;0.67;0.60;;;9.30;99.90;;;;;;5033724;28;20465;-79
2023/12/28 01:45:32;;;;;;;1.00;0.90;;;9.30;99.90;;;;;;5034379;28;20442;-80
2023/12/28 01:48:00;;;;;;;0.60;0.60;;;9.30;99.90;;;;;;5034819;28;20204;-79
2023/12/28 01:50:27;;;;;;;1.98;0.90;;;9.30;99.90;;;;;;5038455;28;20204;-80
2023/12/28 01:52:56;;;;;;;0.60;0.50;;;9.30;99.90;;;;;;5038901;28;20226;-80
2023/12/28 01:55:23;;;;;;;0.63;0.63;;;9.30;99.90;;;;;;5030022;28;20682;-77
2023/12/28 01:57:50;;;;;;;0.50;0.50;;;9.30;99.90;;;;;;5038929;28;20945;-80
2023/12/28 02:00:17;;;;;;;0.60;0.60;;;9.40;99.90;;;;;;5038391;28;20443;-80
2023/12/28 02:02:46;;;;;;;0.80;0.80;;;9.40;99.90;;;;;;5038413;28;20460;-81
2023/12/28 02:05:13;;;;;;;0.67;0.67;;;9.40;99.90;;;;;;5038560;28;20435;-78
2023/12/28 02:07:39;;;;;;;1.47;1.43;;;9.40;99.90;;;;;;5038909;28;20438;-78
2023/12/28 02:10:07;;;;;;;0.80;0.73;;;9.40;99.90;;;;;;5038086;28;20438;-80
2023/12/28 02:12:34;;;;;;;0.50;0.40;;;9.40;99.90;;;;;;5038613;28;20485;-78
2023/12/28 02:15:01;;;;;;;0.73;0.70;;;9.40;99.90;;;;;;5038273;28;20206;-79
2023/12/28 02:17:34;;;;;;;0.63;0.60;;;9.50;99.90;;;;;;5037961;28;20434;-78
2023/12/28 02:20:05;;;;;;;0.90;0.80;;;9.40;99.90;;;;;;5037808;28;20683;-80
2023/12/28 02:22:32;;;;;;;1.17;1.08;;;9.50;99.90;;;;;;5038067;28;20497;-80
2023/12/28 02:25:11;;;;;;;2.27;1.27;;;9.50;99.90;;;;;;5038182;28;20204;-80
2023/12/28 02:27:41;;;;;;;0.60;0.60;;;9.50;99.90;;;;;;5031541;28;20449;-80
2023/12/28 02:30:09;;;;;;;1.13;0.73;;;9.50;99.90;;;;;;5037711;28;20438;-80
2023/12/28 02:32:44;;;;;;;0.80;0.60;;;9.50;99.90;;;;;;5037450;28;20955;-79
2023/12/28 02:35:18;;;;;;;2.15;0.80;;;9.50;99.90;;;;;;5037572;28;20225;-79
2023/12/28 02:37:48;;;;;;;0.70;0.70;;;9.50;99.90;;;;;;5037124;28;20702;-78
2023/12/28 02:40:17;;;;;;;1.02;0.90;;;9.50;99.90;;;;;;5037327;28;20438;-79
2023/12/28 02:42:44;;;;;;;1.40;0.60;;;9.40;99.90;;;;;;5037492;28;20243;-80
2023/12/28 02:45:11;;;;;;;0.60;0.50;;;9.50;99.90;;;;;;5036845;28;20223;-80
2023/12/28 02:47:38;;;;;;;0.70;0.70;;;9.40;99.90;;;;;;5037141;28;20204;-79
2023/12/28 02:50:06;;;;;;;0.50;0.50;;;9.40;99.90;;;;;;5038167;28;20199;-80
2023/12/28 02:52:33;;;;;;;0.50;0.40;;;9.40;99.90;;;;;;5038332;28;20478;-79
2023/12/28 02:54:59;;;;;;;0.50;0.40;;;9.30;99.90;;;;;;5037276;28;20208;-78
2023/12/28 02:57:27;;;;;;;0.50;0.40;;;9.30;99.90;;;;;;5036515;28;20446;-79
2023/12/28 02:59:56;;;;;;;1.55;1.15;;;9.30;99.90;;;;;;5036671;28;20211;-79
2023/12/28 03:02:23;;;;;;;1.13;1.02;;;9.30;99.90;;;;;;5036836;28;20223;-80
2023/12/28 03:04:50;;;;;;;0.70;0.70;;;9.30;99.90;;;;;;5037083;28;20218;-79
2023/12/28 03:07:16;;;;;;;0.60;0.60;;;9.30;99.90;;;;;;5040468;28;20208;-79
2023/12/28 03:09:43;;;;;;;1.13;1.00;;;9.30;99.90;;;;;;5055778;28;20187;-80
2023/12/28 03:12:10;;;;;;;1.67;0.75;;;9.30;99.90;;;;;;5057788;28;20233;-79
2023/12/28 03:14:38;;;;;;;3.17;2.55;;;9.30;99.90;;;;;;5057793;28;20240;-80
2023/12/28 03:17:05;;;;;;;0.63;0.57;;;9.40;99.90;;;;;;5058160;28;20243;-80
2023/12/28 03:19:31;;;;;;;0.88;0.88;;;9.40;99.90;;;;;;5057891;28;20203;-78
2023/12/28 03:21:58;;;;;;;0.60;0.60;;;9.40;99.90;;;;;;5058580;28;20219;-80
2023/12/28 03:24:25;;;;;;;1.00;0.90;;;9.40;99.90;;;;;;5057692;28;20502;-78
2023/12/28 03:26:51;;;;;;;0.63;0.63;;;9.40;99.90;;;;;;5058274;28;20245;-80
2023/12/28 03:29:18;;;;;;;0.98;0.98;;;9.50;99.90;;;;;;5058169;28;20259;-80
2023/12/28 03:31:46;;;;;;;0.50;0.40;;;9.40;99.90;;;;;;5058184;28;20224;-81
2023/12/28 03:34:13;;;;;;;0.60;0.60;;;9.40;99.90;;;;;;5037848;28;20204;-79
2023/12/28 03:36:40;;;;;;;1.00;0.77;;;9.50;99.90;;;;;;5035285;28;20446;-80
2023/12/28 03:39:06;;;;;;;0.85;0.85;;;9.40;99.90;;;;;;5035932;28;20199;-80
2023/12/28 03:41:33;;;;;;;1.20;1.10;;;9.50;99.90;;;;;;5035708;28;20196;-80
2023/12/28 03:44:00;;;;;;;0.50;0.40;;;9.50;99.90;;;;;;5035948;28;20209;-80
2023/12/28 03:46:27;;;;;;;0.70;0.70;;;9.50;99.90;;;;;;5035268;28;20829;-78
2023/12/28 03:48:55;;;;;;;0.50;0.50;;;9.50;99.90;;;;;;5035568;28;20250;-80
2023/12/28 03:51:22;;;;;;;1.00;1.00;;;9.50;99.90;;;;;;5035013;28;20196;-80
2023/12/28 03:53:48;;;;;;;0.70;0.63;;;9.60;99.90;;;;;;5035215;28;20235;-80
2023/12/28 03:56:23;;;;;;;3.53;1.67;;;9.60;99.90;;;;;;5034966;28;20442;-80
2023/12/28 03:58:50;;;;;;;0.50;0.43;;;9.50;99.90;;;;;;5034677;28;20230;-80
2023/12/28 04:01:18;;;;;;;1.43;0.60;;;9.60;99.90;;;;;;5034882;28;21068;-80
2023/12/28 04:03:44;;;;;;;0.90;0.90;;;9.60;99.90;;;;;;5035106;28;20488;-80
2023/12/28 04:06:13;;;;;;;0.70;0.50;;;9.60;99.90;;;;;;5034694;28;20445;-79
2023/12/28 04:08:40;;;;;;;0.70;0.60;;;9.60;99.90;;;;;;5035017;28;20474;-80
2023/12/28 04:11:07;;;;;;;2.60;0.77;;;9.60;99.90;;;;;;5034443;28;20207;-80
2023/12/28 04:13:33;;;;;;;3.30;0.85;;;9.60;99.90;;;;;;5034385;28;20478;-81
2023/12/28 04:16:00;;;;;;;0.80;0.80;;;9.60;99.90;;;;;;5035095;28;20210;-80
2023/12/28 04:18:27;;;;;;;1.05;0.95;;;9.60;99.90;;;;;;5034467;28;20207;-80
2023/12/28 04:20:54;;;;;;;0.63;0.63;;;9.60;99.90;;;;;;5034712;28;20217;-80
2023/12/28 04:23:22;;;;;;;0.50;0.50;;;9.60;99.90;;;;;;5034365;28;20212;-77
2023/12/28 04:25:49;;;;;;;2.95;2.40;;;9.60;99.90;;;;;;5034662;28;20442;-81
2023/12/28 04:28:16;;;;;;;0.50;0.50;;;9.60;99.90;;;;;;5034393;28;20208;-80
2023/12/28 04:30:42;;;;;;;0.60;0.60;;;9.60;99.90;;;;;;5034790;28;20438;-80
2023/12/28 04:33:09;;;;;;;0.50;0.50;;;9.60;99.90;;;;;;5034915;28;20486;-80
2023/12/28 04:35:36;;;;;;;0.83;0.77;;;9.60;99.90;;;;;;5034103;28;20222;-80
2023/12/28 04:38:03;;;;;;;2.30;1.43;;;9.70;99.90;;;;;;5033917;28;20464;-80
2023/12/28 04:40:33;;;;;;;2.10;1.90;;;9.70;99.90;;;;;;5034218;28;20442;-80
2023/12/28 04:43:00;;;;;;;2.03;1.93;;;9.70;99.90;;;;;;5034286;28;20642;-79
2023/12/28 04:45:27;;;;;;;1.87;0.80;;;9.70;99.90;;;;;;5033854;28;20457;-78
2023/12/28 04:47:54;;;;;;;1.77;1.37;;;9.70;99.90;;;;;;5033809;28;20821;-80
2023/12/28 04:50:20;;;;;;;0.83;0.60;;;9.80;99.90;;;;;;5034045;28;20443;-80
2023/12/28 04:52:47;;;;;;;1.02;1.02;;;9.80;99.90;;;;;;5033787;28;20486;-80
2023/12/28 04:55:15;;;;;;;1.95;0.90;;;9.70;99.90;;;;;;5033903;28;20204;-80
2023/12/28 04:57:43;;;;;;;3.03;1.35;;;9.80;99.90;;;;;;5025995;28;20204;-80
2023/12/28 05:00:10;;;;;;;0.50;0.50;;;9.80;99.90;;;;;;5034404;28;20204;-79
2023/12/28 05:02:37;;;;;;;1.10;0.85;;;9.80;99.90;;;;;;5033559;28;20463;-79
2023/12/28 05:05:04;;;;;;;0.50;0.40;;;9.80;99.90;;;;;;5033587;28;20200;-79
2023/12/28 05:07:31;;;;;;;0.73;0.73;;;9.80;99.90;;;;;;5033647;28;20469;-80
2023/12/28 05:09:58;;;;;;;0.90;0.90;;;9.90;99.90;;;;;;5034292;28;20434;-80
2023/12/28 05:12:25;;;;;;;5.60;1.43;;;9.80;99.90;;;;;;5033272;28;20480;-79
2023/12/28 05:14:53;;;;;;;2.00;1.57;;;9.90;99.90;;;;;;5033689;28;20451;-80
2023/12/28 05:17:19;;;;;;;1.17;1.07;;;9.90;99.90;;;;;;5033170;28;20976;-79
2023/12/28 05:19:47;;;;;;;0.50;0.50;;;9.90;99.90;;;;;;5033730;28;20469;-80
2023/12/28 05:22:13;;;;;;;1.10;1.10;;;10.00;99.90;;;;;;5033584;28;20967;-80
2023/12/28 05:24:40;;;;;;;1.00;0.90;;;10.00;99.90;;;;;;5032682;28;20525;-79
2023/12/28 05:27:07;;;;;;;0.77;0.77;;;10.00;99.90;;;;;;5033443;28;20195;-80
2023/12/28 05:29:33;;;;;;;4.33;1.23;;;10.00;99.90;;;;;;5033378;28;20438;-80
2023/12/28 05:32:01;;;;;;;0.77;0.50;;;10.00;99.90;;;;;;5033430;28;20469;-80
2023/12/28 05:34:28;;;;;;;1.07;0.70;;;10.10;99.90;;;;;;5033787;28;20477;-80
2023/12/28 05:36:55;;;;;;;0.80;0.80;;;10.10;99.90;;;;;;5034243;28;20439;-81
2023/12/28 05:39:22;;;;;;;0.50;0.50;;;10.10;99.90;;;;;;5033989;28;20450;-82
2023/12/28 05:41:50;;;;;;;3.13;1.30;;;10.10;99.90;;;;;;5033625;28;20454;-80
2023/12/28 05:44:17;;;;;;;7.30;1.00;;;10.10;99.90;;;;;;5033819;28;20438;-80
2023/12/28 05:46:44;;;;;;;0.67;0.67;;;10.10;99.90;;;;;;5033922;28;20794;-81
2023/12/28 05:49:12;;;;;;;0.50;0.50;;;10.10;99.90;;;;;;5034673;28;20445;-80
2023/12/28 05:51:40;;;;;;;0.95;0.95;;;10.10;99.90;;;;;;5033915;28;20438;-79
2023/12/28 05:54:07;;;;;;;0.83;0.83;;;10.10;99.90;;;;;;5034153;28;20258;-80
2023/12/28 05:56:34;;;;;;;1.07;0.97;;;10.10;99.90;;;;;;5033977;28;20465;-80
2023/12/28 05:59:01;;;;;;;0.63;0.63;;;10.10;99.90;;;;;;5034505;28;20453;-80
2023/12/28 06:01:28;;;;;;;6.63;1.40;;;10.10;99.90;;;;;;5033481;28;20435;-79
2023/12/28 06:03:54;;;;;;;0.67;0.60;;;10.10;99.90;;;;;;5033745;28;20443;-80
2023/12/28 06:06:23;;;;;;;4.83;1.10;;;10.10;99.90;;;;;;5033797;28;20439;-79
2023/12/28 06:08:49;;;;;;;1.90;0.70;;;10.10;99.90;;;;;;5034054;28;20442;-80
2023/12/28 06:11:16;;;;;;;1.17;0.63;;;10.10;99.90;;;;;;5034204;28;20821;-80
2023/12/28 06:13:43;;;;;;;1.42;1.33;;;10.10;99.90;;;;;;5033683;28;20481;-80
2023/12/28 06:16:10;;;;;;;3.15;1.20;;;10.10;99.90;;;;;;5033816;28;20192;-80
2023/12/28 06:18:37;;;;;;;0.83;0.60;;;10.10;99.90;;;;;;5033764;28;20232;-79
2023/12/28 06:21:06;;;;;;;6.38;1.17;;;10.10;99.90;;;;;;5033744;28;20952;-79
2023/12/28 06:23:34;;;;;;;0.80;0.70;;;10.10;99.90;;;;;;5033427;28;20409;-79
2023/12/28 06:26:06;;;;;;;0.50;0.50;;;10.10;99.90;;;;;;5033855;28;20290;-80
2023/12/28 06:28:33;;;;;;;1.10;1.10;;;10.10;99.90;;;;;;5033254;28;20516;-79
2023/12/28 06:31:00;;;;;;;0.60;0.50;;;10.10;99.90;;;;;;5033430;28;20200;-80
2023/12/28 06:33:28;;;;;;;2.63;0.83;;;10.10;99.90;;;;;;5033063;28;20485;-79
2023/12/28 06:35:55;;;;;;;0.90;0.80;;;10.10;99.90;;;;;;5036190;28;20853;-80
2023/12/28 06:38:21;;;;;;;1.48;1.38;;;10.10;99.90;;;;;;5037990;28;20446;-79
2023/12/28 06:40:49;;;;;;;0.50;0.50;;;10.10;99.90;;;;;;5033659;28;20217;-80
2023/12/28 06:43:16;;;;;;;0.97;0.87;;;10.10;99.90;;;;;;5035200;28;20463;-80
2023/12/28 06:45:43;;;;;;;0.50;0.43;;;10.10;99.90;;;;;;5037401;28;20456;-79
2023/12/28 06:48:09;;;;;;;0.70;0.60;;;10.10;99.90;;;;;;5038145;28;20444;-80
2023/12/28 06:50:36;;;;;;;0.60;0.60;;;10.00;99.90;;;;;;5037321;28;20465;-80
2023/12/28 06:53:03;;;;;;;0.50;0.40;;;10.10;99.90;;;;;;5038283;28;20863;-80
2023/12/28 06:55:30;;;;;;;1.07;0.70;;;10.00;99.90;;;;;;5037776;28;20211;-80
2023/12/28 06:57:58;;;;;;;0.80;0.77;;;10.00;99.90;;;;;;5038100;28;20484;-80
2023/12/28 07:00:25;;;;;;;0.75;0.75;;;10.00;99.90;;;;;;5038313;28;20439;-80
2023/12/28 07:02:52;;;;;;;1.47;0.60;;;10.10;99.90;;;;;;5030339;28;20208;-80
2023/12/28 07:05:19;;;;;;;8.73;1.17;;;10.10;99.90;;;;;;5037516;28;20435;-79
2023/12/28 07:07:46;;;;;;;4.20;1.30;;;10.10;99.90;;;;;;5036257;28;20442;-80
2023/12/28 07:10:12;;;;;;;0.50;0.30;;;10.10;99.90;;;;;;5028132;28;21039;-80
2023/12/28 07:12:39;;;;;;;1.40;0.93;;;10.10;99.90;;;;;;5036166;28;20215;-80
2023/12/28 07:15:10;;;;;;;0.90;0.70;;;10.10;99.90;;;;;;5037096;28;20216;-79
2023/12/28 07:17:38;;;;;;;0.70;0.70;;;10.00;99.90;;;;;;5036836;28;20474;-80
2023/12/28 07:20:09;;;;;;;1.83;1.40;;;10.00;99.90;;;;;;5030306;28;20195;-81
2023/12/28 07:22:35;;;;;;;1.17;0.65;;;10.10;99.90;;;;;;5036867;28;20470;-80
2023/12/28 07:25:02;;;;;;;0.50;0.50;;;10.00;99.90;;;;;;5036776;28;20188;-79
2023/12/28 07:27:29;;;;;;;2.10;1.00;;;10.00;99.90;;;;;;5034683;28;20450;-76
2023/12/28 07:29:56;;;;;;;2.97;1.17;;;10.10;99.90;;;;;;5034983;28;20442;-80
2023/12/28 07:32:25;;;;;;;1.20;1.17;;;10.10;99.90;;;;;;5035419;28;20223;-79
2023/12/28 07:34:52;;;;;;;1.00;0.83;;;10.10;99.90;;;;;;5035654;28;20478;-80
2023/12/28 07:37:19;;;;;;;1.13;0.70;;;10.10;99.90;;;;;;5035422;28;20443;-79
2023/12/28 07:39:46;;;;;;;1.47;0.60;;;10.20;99.90;;;;;;5035895;28;20444;-80
2023/12/28 07:42:13;;;;;;;1.23;0.53;;;10.20;99.90;;;;;;5035658;28;20458;-79
2023/12/28 07:44:40;;;;;;;1.40;0.93;;;10.20;99.90;;;;;;5035405;28;20435;-81
2023/12/28 07:47:07;;;;;;;1.00;0.80;;;10.20;99.90;;;;;;5034643;28;20446;-79
2023/12/28 07:49:35;;;;;;;4.77;1.03;;;10.20;99.90;;;;;;5035515;28;20948;-79
2023/12/28 07:52:02;;;;;;;0.70;0.70;;;10.20;99.90;;;;;;5035510;28;20579;-80
2023/12/28 07:54:29;;;;;;;6.57;0.90;;;10.30;99.90;;;;;;5035162;28;20474;-80
2023/12/28 07:56:56;;;;;;;0.60;0.50;;;10.30;99.90;;;;;;5035052;28;20538;-79
2023/12/28 07:59:22;;;;;;;0.70;0.70;;;10.30;99.90;;;;;;5035824;28;20442;-80
2023/12/28 08:01:49;;;;;;;0.80;0.80;;;10.30;99.90;;;;;;5034894;28;20807;-79
2023/12/28 08:04:16;;;;;;;2.23;0.67;;;10.30;99.90;;;;;;5035284;28;20774;-79
2023/12/28 08:06:44;;;;;;;0.90;0.50;;;10.20;99.90;;;;;;5034675;28;20438;-80
2023/12/28 08:09:11;;;;;;;1.27;1.17;;;10.20;99.90;;;;;;5035181;28;20438;-80
2023/12/28 08:11:38;;;;;;;0.77;0.47;;;10.20;99.90;;;;;;5034399;28;20937;-79
2023/12/28 08:14:05;;;;;;;0.90;0.73;;;10.30;99.90;;;;;;5035285;28;21004;-79
2023/12/28 08:16:31;;;;;;;0.77;0.77;;;10.20;99.90;;;;;;5035117;28;20195;-79
2023/12/28 08:18:58;;;;;;;8.23;1.60;;;10.30;99.90;;;;;;5027181;28;20449;-80
2023/12/28 08:21:25;;;;;;;0.60;0.47;;;10.30;99.90;;;;;;5036073;28;20825;-79
2023/12/28 08:23:53;;;;;;;1.20;1.10;;;10.30;99.90;;;;;;5035711;28;20442;-79
2023/12/28 08:26:20;;;;;;;0.50;0.47;;;10.30;99.90;;;;;;5035028;28;20434;-79
2023/12/28 08:28:47;;;;;;;0.70;0.70;;;10.30;99.90;;;;;;5035644;28;20442;-80
2023/12/28 08:31:14;;;;;;;0.80;0.80;;;10.30;99.90;;;;;;5035124;28;20443;-79
2023/12/28 08:33:41;;;;;;;2.87;1.13;;;10.40;99.90;;;;;;5034796;28;20485;-80
2023/12/28 08:36:09;;;;;;;1.00;0.80;;;10.30;99.90;;;;;;5035782;28;20443;-79
2023/12/28 08:38:36;;;;;;;1.70;1.60;;;10.30;99.90;;;;;;5034639;28;20439;-79
2023/12/28 08:41:08;;;;;;;2.63;0.70;;;10.30;99.90;;;;;;5035266;28;20482;-79
2023/12/28 08:43:35;;;;;;;1.30;1.20;;;10.40;99.90;;;;;;5034118;28;20473;-78
2023/12/28 08:46:02;;;;;;;1.53;0.70;;;10.40;99.90;;;;;;5027133;28;20449;-78
2023/12/28 08:48:29;;;;;;;0.70;0.60;;;10.40;99.90;;;;;;5034946;28;20438;-79
2023/12/28 08:50:56;;;;;;;2.33;0.70;;;10.40;99.90;;;;;;5034387;28;20435;-80
2023/12/28 08:53:22;;;;;;;3.83;1.30;;;10.40;99.90;;;;;;5034901;28;20459;-80
2023/12/28 08:55:49;;;;;;;0.50;0.40;;;10.40;99.90;;;;;;5034384;28;20444;-80
2023/12/28 08:58:17;;;;;;;0.70;0.70;;;10.50;99.90;;;;;;5034537;28;20826;-79
2023/12/28 09:00:45;;;;;;;1.23;0.90;;;10.40;99.90;;;;;;5034166;28;20791;-79
2023/12/28 09:03:12;;;;;;;4.00;1.80;;;10.40;99.90;;;;;;5034907;28;20454;-79
2023/12/28 09:05:38;;;;;;;3.30;1.60;;;10.40;99.90;;;;;;5033680;28;20445;-78
2023/12/28 09:08:06;;;;;;;5.80;1.67;;;10.50;99.90;;;;;;5033992;28;20443;-79
2023/12/28 09:10:33;;;;;;;0.50;0.50;;;10.50;99.90;;;;;;5034153;28;20467;-79
2023/12/28 09:12:59;;;;;;;0.70;0.50;;;10.50;99.90;;;;;;5033834;28;20458;-79
2023/12/28 09:15:28;;;;;;;0.60;0.53;;;10.50;99.90;;;;;;5034165;28;20477;-78
2023/12/28 09:17:56;;;;;;;2.87;1.10;;;10.50;99.90;;;;;;5034453;28;20450;-78
2023/12/28 09:20:22;;;;;;;8.37;1.40;;;10.40;99.90;;;;;;5033425;28;20455;-78
2023/12/28 09:22:53;;;;;;;0.90;0.70;;;10.50;99.90;;;;;;5033764;28;20494;-79
2023/12/28 09:25:20;;;;;;;0.60;0.60;;;10.50;99.90;;;;;;5033558;28;21030;-77
2023/12/28 09:27:46;;;;;;;0.50;0.50;;;10.50;99.90;;;;;;5033633;28;20438;-78
2023/12/28 09:30:14;;;;;;;0.50;0.50;;;10.50;99.90;;;;;;5034358;28;20449;-79
2023/12/28 09:32:42;;;;;;;0.83;0.60;;;10.50;99.90;;;;;;5034193;28;20476;-79
2023/12/28 09:35:09;;;;;;;1.60;1.50;;;10.50;99.90;;;;;;5034107;28;20465;-77
2023/12/28 09:37:36;;;;;;;1.60;0.60;;;10.60;99.90;;;;;;5034153;28;20810;-81
2023/12/28 09:40:03;;;;;;;1.43;1.33;;;10.70;99.90;;;;;;5034168;28;20440;-80
2023/12/28 09:42:38;;;;;;;6.20;1.20;;;10.70;99.90;;;;;;5034463;28;20562;-80
2023/12/28 09:45:06;;;;;;;1.97;1.77;;;10.70;99.90;;;;;;5033829;28;20206;-78
2023/12/28 09:47:33;;;;;;;1.70;0.60;;;10.70;99.90;;;;;;5034685;28;20459;-81
2023/12/28 09:50:01;;;;;;;1.43;1.03;;;10.70;99.90;;;;;;5034544;28;20447;-79
2023/12/28 09:52:28;;;;;;;0.93;0.93;;;10.70;99.90;;;;;;5034461;28;20528;-79
2023/12/28 09:54:55;;;;;;;1.13;1.03;;;10.70;99.90;;;;;;5034237;28;20490;-80
2023/12/28 09:57:23;;;;;;;2.87;1.50;;;10.70;99.90;;;;;;5034162;28;20526;-78
2023/12/28 09:59:50;;;;;;;0.70;0.70;;;10.70;99.90;;;;;;5034668;28;20438;-77
2023/12/28 10:02:17;;;;;;;9.73;0.83;;;10.70;99.90;;;;;;5033905;28;20222;-79
2023/12/28 10:04:44;;;;;;;0.50;0.40;;;10.70;99.90;;;;;;5034229;28;20438;-79
2023/12/28 10:07:12;;;;;;;1.37;0.93;;;10.70;99.90;;;;;;5033547;28;20438;-79
2023/12/28 10:09:39;;;;;;;1.25;0.60;;;10.80;99.90;;;;;;5035191;28;20446;-80
2023/12/28 10:12:07;;;;;;;0.60;0.50;;;10.70;99.90;;;;;;5038773;28;20216;-80
2023/12/28 10:14:34;;;;;;;0.60;0.50;;;10.70;99.90;;;;;;5038070;28;20470;-78
2023/12/28 10:17:00;;;;;;;1.13;0.80;;;10.70;99.90;;;;;;5038198;28;20442;-79
2023/12/28 10:19:29;;;;;;;2.30;0.97;;;10.70;99.90;;;;;;5038245;28;20196;-79
2023/12/28 10:21:56;;;;;;;4.77;2.63;;;10.70;99.90;;;;;;5038047;28;20478;-79
2023/12/28 10:24:24;;;;;;;1.85;0.82;;;10.70;99.90;;;;;;5038560;28;20441;-78
2023/12/28 10:26:51;;;;;;;0.73;0.57;;;10.70;99.90;;;;;;5036931;28;20770;-79
2023/12/28 10:29:18;;;;;;;3.60;0.80;;;10.70;99.90;;;;;;5038310;28;20445;-79
2023/12/28 10:31:49;;;;;;;0.60;0.40;;;10.70;99.90;;;;;;5037558;28;20472;-79
2023/12/28 10:34:16;;;;;;;0.80;0.80;;;10.80;99.90;;;;;;5030553;28;20568;-80
2023/12/28 10:36:43;;;;;;;1.53;0.77;;;10.70;99.90;;;;;;5037122;28;20447;-82
2023/12/28 10:39:13;;;;;;;1.73;1.17;;;10.80;99.90;;;;;;5033970;28;20445;-79
2023/12/28 10:41:44;;;;;;;0.90;0.90;;;10.80;99.90;;;;;;5033757;28;20442;-76
2023/12/28 10:44:14;;;;;;;0.93;0.90;;;10.80;99.90;;;;;;5036528;28;20441;-82
2023/12/28 10:46:42;;;;;;;2.63;1.13;;;10.80;99.90;;;;;;5036818;28;20443;-81
2023/12/28 10:49:12;;;;;;;2.07;0.60;;;10.80;99.90;;;;;;5032791;28;20450;-81
2023/12/28 10:51:43;;;;;;;3.37;0.83;;;10.80;99.90;;;;;;5024268;28;20991;-82
2023/12/28 10:54:21;;;;;;;0.70;0.70;;;10.80;99.90;;;;;;5036611;28;20498;-79
2023/12/28 10:57:00;;;;;;;5.90;2.23;;;10.80;99.90;;;;;;5036244;28;20449;-81
2023/12/28 10:59:36;;;;;;;3.67;1.20;;;10.80;99.90;;;;;;5030606;28;20434;-80
2023/12/28 11:02:06;;;;;;;0.97;0.73;;;10.90;99.90;;;;;;5036858;28;20454;-78
2023/12/28 11:04:41;;;;;;;0.57;0.57;;;10.90;99.90;;;;;;5036660;28;20949;-78
2023/12/28 11:07:10;;;;;;;0.70;0.57;;;10.90;99.90;;;;;;5031982;28;20501;-78
2023/12/28 11:09:38;;;;;;;2.10;1.13;;;11.00;99.90;;;;;;5036127;28;20450;-81
2023/12/28 11:12:09;;;;;;;1.60;1.37;;;11.00;99.90;;;;;;5034543;28;20469;-80
2023/12/28 11:14:39;;;;;;;1.13;0.87;;;11.10;99.90;;;;;;5037442;28;20501;-80
2023/12/28 11:17:07;;;;;;;3.70;0.93;;;11.10;99.90;;;;;;5038272;28;20984;-80
2023/12/28 11:19:35;;;;;;;25.03;1.60;;;11.20;99.90;;;;;;5039179;28;20825;-80
2023/12/28 11:22:03;;;;;;;1.07;0.70;;;11.20;99.90;;;;;;5035139;28;20470;-80
2023/12/28 11:24:31;;;;;;;2.63;2.43;;;11.20;99.90;;;;;;5036646;28;20449;-80
2023/12/28 11:26:58;;;;;;;0.70;0.60;;;11.20;99.90;;;;;;5035602;28;20453;-78
2023/12/28 11:29:26;;;;;;;0.70;0.50;;;11.20;99.90;;;;;;5036824;28;20443;-79
2023/12/28 11:31:54;;;;;;;1.00;1.00;;;11.30;99.90;;;;;;5036728;28;20463;-78
2023/12/28 11:34:25;;;;;;;0.80;0.50;;;11.20;99.90;;;;;;5040599;28;20427;-80
2023/12/28 11:36:55;;;;;;;25.33;1.97;;;11.30;99.90;;;;;;5036682;28;20447;-81
2023/12/28 11:39:33;;;;;;;4.67;1.33;;;11.30;99.90;;;;;;5036601;28;20987;-82
2023/12/28 11:42:04;;;;;;;4.90;0.50;;;11.30;99.90;;;;;;5040123;28;20458;-80
2023/12/28 11:44:38;;;;;;;0.93;0.70;;;11.30;99.90;;;;;;5038242;28;20426;-80
2023/12/28 11:47:12;;;;;;;0.67;0.50;;;11.30;99.90;;;;;;5037507;28;20470;-80
2023/12/28 11:49:40;;;;;;;9.70;2.97;;;11.30;99.90;;;;;;5037900;28;20465;-79
2023/12/28 11:52:07;;;;;;;0.50;0.40;;;11.30;99.90;;;;;;5037789;28;20497;-82
2023/12/28 11:54:34;;;;;;;2.23;0.77;;;11.40;99.90;;;;;;5036877;28;20474;-78
2023/12/28 11:57:01;;;;;;;0.50;0.50;;;11.40;99.90;;;;;;5037260;28;20439;-79
2023/12/28 11:59:28;;;;;;;0.90;0.60;;;11.40;99.90;;;;;;5037276;28;20794;-79
2023/12/28 12:01:56;;;;;;;0.60;0.60;;;11.40;99.90;;;;;;5038596;28;20467;-80
2023/12/28 12:04:23;;;;;;;2.97;0.97;;;11.40;99.90;;;;;;5039077;28;20443;-80
2023/12/28 12:06:50;;;;;;;5.20;1.63;;;11.40;99.90;;;;;;5038505;28;20950;-81
2023/12/28 12:09:18;;;;;;;1.00;1.00;;;11.50;99.90;;;;;;5037625;28;20452;-79
2023/12/28 12:11:44;;;;;;;0.70;0.60;;;11.40;99.90;;;;;;5034808;28;20471;-79
2023/12/28 12:14:12;;;;;;;0.50;0.50;;;11.40;99.90;;;;;;5034564;28;20446;-81
2023/12/28 12:16:39;;;;;;;2.83;1.70;;;11.50;99.90;;;;;;5034694;28;20572;-80
2023/12/28 12:19:08;;;;;;;4.20;0.70;;;11.50;99.90;;;;;;5034826;28;20557;-79
2023/12/28 12:21:35;;;;;;;1.00;1.00;;;11.50;99.90;;;;;;5034988;28;20442;-78
2023/12/28 12:24:02;;;;;;;1.77;0.90;;;11.40;99.90;;;;;;5034685;28;20445;-78
2023/12/28 12:26:31;;;;;;;0.50;0.50;;;11.40;99.90;;;;;;5034635;28;20439;-79
2023/12/28 12:28:58;;;;;;;0.77;0.63;;;11.40;99.90;;;;;;5036262;28;20455;-80
2023/12/28 12:31:26;;;;;;;0.60;0.50;;;11.40;99.90;;;;;;5036686;28;20439;-81
2023/12/28 12:33:52;;;;;;;0.70;0.70;;;11.40;99.90;;;;;;5036548;28;20451;-81
2023/12/28 12:36:21;;;;;;;0.60;0.60;;;11.40;99.90;;;;;;5036015;28;20536;-80
2023/12/28 12:38:48;;;;;;;0.70;0.43;;;11.50;99.90;;;;;;5034869;28;20443;-82
2023/12/28 12:41:16;;;;;;;4.20;2.40;;;11.50;99.90;;;;;;5034150;28;20445;-80
2023/12/28 12:43:42;;;;;;;1.60;0.60;;;11.60;99.90;;;;;;5034832;28;20476;-80
2023/12/28 12:46:09;;;;;;;3.63;1.27;;;11.70;99.90;;;;;;5035361;28;20445;-82
2023/12/28 12:48:36;;;;;;;0.50;0.40;;;11.70;99.90;;;;;;5034677;28;20442;-82
2023/12/28 12:51:04;;;;;;;1.27;1.10;;;11.70;99.90;;;;;;5034099;28;20447;-81